Time;durP1;ratioP1;P1;durP2;ratioP2;P2;SDS_P1;SDS_P2;PMS_P1;PMS_P2;Temp;Humidity;BMP_temperature;BMP_pressure;BME280_temperature;BME280_humidity;BME280_pressure;Samples;Min_cycle;Max_cycle;Signal;HPM_P1;HPM_P2
2022/06/13 00:00:43;;;;;;;10.30;9.30;;;;;;;16.73;70.23;100072.86;130186;1271;107615;-74
2022/06/13 00:03:49;;;;;;;9.90;9.00;;;;;;;16.86;70.07;100065.96;130184;1271;108819;-74
2022/06/13 00:06:54;;;;;;;11.60;9.80;;;;;;;16.95;70.09;100068.25;130138;1271;107683;-72
2022/06/13 00:10:00;;;;;;;9.60;8.50;;;;;;;16.98;70.23;100074.69;130162;1269;108722;-74
2022/06/13 00:13:06;;;;;;;10.30;9.10;;;;;;;16.95;71.62;100094.03;130139;1269;109405;-74
2022/06/13 00:16:14;;;;;;;10.40;9.40;;;;;;;16.90;72.63;100100.85;130217;1271;108218;-72
2022/06/13 00:19:19;;;;;;;10.50;9.50;;;;;;;16.86;71.89;100105.81;130205;1271;108830;-72
2022/06/13 00:22:25;;;;;;;11.60;9.70;;;;;;;16.88;71.25;100100.55;130194;1271;109766;-74
2022/06/13 00:25:30;;;;;;;10.50;9.50;;;;;;;16.92;71.10;100105.42;130167;1271;108837;-72
2022/06/13 00:28:35;;;;;;;13.50;9.80;;;;;;;16.96;71.23;100107.80;129954;1270;107404;-71
2022/06/13 00:31:41;;;;;;;10.40;8.70;;;;;;;16.92;71.74;100119.64;130129;1271;108882;-72
2022/06/13 00:34:47;;;;;;;9.90;8.80;;;;;;;16.83;71.78;100112.88;130178;1271;107216;-71
2022/06/13 00:37:52;;;;;;;9.80;8.80;;;;;;;16.84;71.42;100113.21;130170;1270;108948;-72
2022/06/13 00:40:57;;;;;;;9.60;8.60;;;;;;;16.85;71.27;100115.29;130152;1271;109094;-70
2022/06/13 00:44:08;;;;;;;11.00;9.00;;;;;;;16.87;71.17;100106.72;130144;1271;109032;-71
2022/06/13 00:47:13;;;;;;;10.00;8.50;;;;;;;16.84;71.37;100097.26;130134;1271;108887;-74
2022/06/13 00:50:27;;;;;;;8.00;7.00;;;;;;;16.80;71.29;100091.69;130173;1271;108737;-75
2022/06/13 00:53:35;;;;;;;8.90;8.10;;;;;;;16.75;71.47;100086.05;130135;1271;108722;-71
2022/06/13 00:56:40;;;;;;;9.50;8.60;;;;;;;16.67;71.58;100088.58;130222;1270;108960;-73
2022/06/13 00:59:47;;;;;;;9.50;8.50;;;;;;;16.62;71.49;100089.29;130145;1271;108612;-72
2022/06/13 01:02:54;;;;;;;9.70;8.70;;;;;;;16.48;71.78;100102.19;130046;1270;107849;-72
2022/06/13 01:06:03;;;;;;;10.00;8.10;;;;;;;16.40;71.81;100094.59;130118;1271;108818;-71
2022/06/13 01:09:11;;;;;;;8.50;7.50;;;;;;;16.37;71.75;100089.02;130189;1271;108843;-72
2022/06/13 01:12:18;;;;;;;8.70;7.90;;;;;;;16.26;71.75;100090.38;130261;1271;108696;-72
2022/06/13 01:15:41;;;;;;;9.20;7.80;;;;;;;16.24;71.85;100088.20;130187;1270;108967;-72
2022/06/13 01:19:13;;;;;;;9.50;8.30;;;;;;;16.20;71.83;100088.74;130143;1271;108917;-73
2022/06/13 01:22:41;;;;;;;9.00;8.10;;;;;;;16.08;71.94;100090.48;130220;1271;108765;-72
2022/06/13 01:26:25;;;;;;;10.30;8.50;;;;;;;15.93;71.87;100087.59;129838;1271;108864;-75
2022/06/13 01:29:59;;;;;;;8.40;7.60;;;;;;;15.80;72.16;100088.54;130174;1270;108675;-72
2022/06/13 01:33:15;;;;;;;10.60;8.00;;;;;;;15.74;72.24;100086.75;130167;1270;107378;-72
2022/06/13 01:36:32;;;;;;;9.30;8.30;;;;;;;15.71;72.22;100088.46;130153;1270;108875;-71
2022/06/13 01:39:52;;;;;;;10.40;9.30;;;;;;;15.64;72.56;100080.14;130193;1271;108863;-71
2022/06/13 01:43:09;;;;;;;10.30;9.30;;;;;;;15.64;72.92;100079.84;130124;1269;107713;-72
2022/06/13 01:46:21;;;;;;;11.40;9.20;;;;;;;15.61;72.68;100074.53;130129;1271;108756;-71
2022/06/13 01:49:35;;;;;;;8.70;7.90;;;;;;;15.56;72.64;100065.45;130187;1271;108773;-71
2022/06/13 01:52:51;;;;;;;9.00;8.00;;;;;;;15.50;72.62;100052.16;130175;1271;108855;-71
2022/06/13 01:56:03;;;;;;;10.20;8.20;;;;;;;15.47;72.88;100046.98;130160;1271;108782;-71
2022/06/13 01:59:17;;;;;;;10.70;9.10;;;;;;;15.47;72.97;100041.81;130199;1268;109028;-71
2022/06/13 02:02:31;;;;;;;10.00;9.10;;;;;;;15.45;73.07;100050.31;130178;1270;109204;-73
2022/06/13 02:05:42;;;;;;;9.80;8.80;;;;;;;15.43;73.34;100058.98;130177;1271;108739;-72
2022/06/13 02:08:53;;;;;;;9.90;7.70;;;;;;;15.43;73.42;100057.54;130322;1271;108891;-72
2022/06/13 02:11:59;;;;;;;9.30;8.30;;;;;;;15.46;73.61;100055.25;130228;1270;108836;-72
2022/06/13 02:15:08;;;;;;;8.90;8.10;;;;;;;15.47;73.43;100045.34;130219;1271;108654;-72
2022/06/13 02:18:20;;;;;;;9.20;8.40;;;;;;;15.51;73.71;100041.52;130240;1270;108806;-72
2022/06/13 02:21:32;;;;;;;10.80;8.50;;;;;;;15.52;73.80;100043.13;130177;1271;108840;-73
2022/06/13 02:24:43;;;;;;;9.90;8.00;;;;;;;15.58;73.94;100040.20;130143;1270;109631;-75
2022/06/13 02:27:52;;;;;;;12.50;7.80;;;;;;;15.68;73.83;100034.64;130134;1271;108719;-76
2022/06/13 02:31:07;;;;;;;8.90;7.60;;;;;;;15.78;73.89;100033.14;130223;1271;106962;-75
2022/06/13 02:34:17;;;;;;;8.60;7.70;;;;;;;15.85;73.95;100031.05;130199;1271;108811;-73
2022/06/13 02:37:28;;;;;;;8.80;7.90;;;;;;;15.92;74.14;100031.41;130200;1270;109009;-74
2022/06/13 02:40:37;;;;;;;9.40;7.60;;;;;;;15.99;74.10;100032.05;130210;1270;107662;-73
2022/06/13 02:43:46;;;;;;;7.90;7.10;;;;;;;16.06;73.94;100038.90;130215;1271;107627;-72
2022/06/13 02:46:55;;;;;;;7.40;6.70;;;;;;;16.12;74.05;100048.75;130140;1271;109794;-73
2022/06/13 02:50:05;;;;;;;8.20;7.40;;;;;;;16.19;74.12;100047.20;130225;1270;108787;-73
2022/06/13 02:53:15;;;;;;;8.80;8.00;;;;;;;16.27;74.21;100040.44;130173;1271;108699;-73
2022/06/13 02:56:34;;;;;;;9.60;8.00;;;;;;;16.32;74.26;100044.52;130180;1271;108922;-72
2022/06/13 02:59:52;;;;;;;10.40;9.10;;;;;;;16.34;74.36;100049.63;130176;1271;108755;-72
2022/06/13 03:03:20;;;;;;;8.80;7.70;;;;;;;16.31;74.41;100063.78;130231;1270;108962;-76
2022/06/13 03:06:31;;;;;;;7.40;6.70;;;;;;;16.36;74.59;100063.36;130362;1270;108684;-77
2022/06/13 03:09:46;;;;;;;9.30;7.70;;;;;;;16.41;74.62;100063.31;130263;1270;108630;-75
2022/06/13 03:12:59;;;;;;;13.60;8.10;;;;;;;16.48;74.49;100065.93;130320;1271;107120;-77
2022/06/13 03:16:11;;;;;;;9.30;8.10;;;;;;;16.53;74.60;100055.48;130217;1269;109157;-75
2022/06/13 03:19:22;;;;;;;12.10;9.60;;;;;;;16.51;75.03;100058.42;130245;1271;108744;-75
2022/06/13 03:22:34;;;;;;;8.30;7.50;;;;;;;16.40;75.17;100066.92;130169;1271;108642;-75
2022/06/13 03:25:45;;;;;;;8.40;6.80;;;;;;;16.41;75.08;100060.54;130107;1270;108696;-75
2022/06/13 03:28:57;;;;;;;8.40;7.40;;;;;;;16.52;75.07;100052.53;130175;1271;108904;-74
2022/06/13 03:32:10;;;;;;;9.70;8.70;;;;;;;16.61;75.45;100055.13;130248;1271;108687;-74
2022/06/13 03:35:19;;;;;;;10.20;9.20;;;;;;;16.64;75.61;100053.58;130199;1269;108700;-73
2022/06/13 03:38:32;;;;;;;9.90;8.90;;;;;;;16.70;75.50;100055.19;130154;1269;108589;-77
2022/06/13 03:41:38;;;;;;;;;;;;;;;16.81;75.57;100055.13;130225;1271;108764;-78
2022/06/13 03:44:51;;;;;;;8.90;7.00;;;;;;;16.82;75.58;100057.60;130267;1271;108882;-77
2022/06/13 03:48:04;;;;;;;8.10;7.20;;;;;;;16.92;75.52;100059.27;130179;1271;108676;-77
2022/06/13 03:51:15;;;;;;;7.80;7.00;;;;;;;17.03;75.54;100057.13;130246;1271;108878;-76
2022/06/13 03:54:25;;;;;;;9.60;8.10;;;;;;;17.14;75.56;100053.15;130225;1271;108609;-75
2022/06/13 03:57:37;;;;;;;9.50;8.60;;;;;;;17.27;75.42;100047.16;130175;1270;107714;-76
2022/06/13 04:00:49;;;;;;;8.10;7.30;;;;;;;17.38;75.27;100050.05;130168;1271;108948;-75
2022/06/13 04:03:55;;;;;;;9.30;7.70;;;;;;;17.48;75.35;100051.11;130189;1271;107626;-76
2022/06/13 04:07:01;;;;;;;8.50;7.60;;;;;;;17.61;75.37;100056.05;130215;1271;108824;-78
2022/06/13 04:10:11;;;;;;;8.70;7.90;;;;;;;17.72;75.25;100052.38;130227;1270;108853;-78
2022/06/13 04:13:27;;;;;;;8.90;8.00;;;;;;;17.80;75.26;100053.30;130180;1268;108634;-78
2022/06/13 04:16:51;;;;;;;9.10;8.10;;;;;;;17.86;75.28;100054.24;130196;1270;107690;-78
2022/06/13 04:20:06;;;;;;;10.90;9.20;;;;;;;17.90;75.17;100046.04;130233;1271;108792;-79
2022/06/13 04:23:20;;;;;;;9.20;8.30;;;;;;;17.91;75.12;100039.02;130208;1270;108557;-78
2022/06/13 04:26:33;;;;;;;10.00;8.20;;;;;;;17.91;75.03;100031.30;130219;1271;108810;-78
2022/06/13 04:29:42;;;;;;;9.50;8.50;;;;;;;17.95;75.01;100023.95;130203;1270;108839;-78
2022/06/13 04:32:52;;;;;;;10.10;8.10;;;;;;;17.99;74.96;100021.01;130220;1271;108751;-78
2022/06/13 04:35:59;;;;;;;10.30;9.10;;;;;;;18.04;74.89;100014.60;130224;1271;108844;-75
2022/06/13 04:39:08;;;;;;;11.00;9.90;;;;;;;18.08;74.96;100017.52;130247;1271;108864;-75
2022/06/13 04:42:16;;;;;;;14.60;12.00;;;;;;;18.10;75.11;100013.06;130172;1271;108872;-76
2022/06/13 04:45:25;;;;;;;15.10;12.00;;;;;;;18.12;74.96;100007.83;130189;1271;108830;-76
2022/06/13 04:48:31;;;;;;;11.80;10.00;;;;;;;18.10;75.03;100010.36;130200;1271;108750;-75
2022/06/13 04:51:42;;;;;;;10.00;8.50;;;;;;;18.09;75.28;100015.94;130203;1271;108661;-76
2022/06/13 04:54:53;;;;;;;9.20;8.20;;;;;;;18.11;75.21;100010.98;130218;1270;107854;-78
2022/06/13 04:58:00;;;;;;;10.40;9.30;;;;;;;18.16;75.07;100002.46;130211;1271;108743;-79
2022/06/13 05:01:14;;;;;;;11.40;10.30;;;;;;;18.22;75.07;99994.74;130210;1270;108706;-80
2022/06/13 05:04:24;;;;;;;12.30;10.30;;;;;;;18.29;75.18;99992.48;130226;1271;108919;-73
2022/06/13 05:07:30;;;;;;;10.10;8.70;;;;;;;18.35;75.28;99992.59;130209;1270;109097;-74
2022/06/13 05:10:38;;;;;;;11.30;8.80;;;;;;;18.43;75.29;99989.05;130163;1271;108881;-76
2022/06/13 05:13:44;;;;;;;10.70;9.60;;;;;;;18.59;75.07;99990.71;130263;1270;108757;-75
2022/06/13 05:17:10;;;;;;;11.10;9.30;;;;;;;18.79;75.31;99991.05;130166;1270;108802;-75
2022/06/13 05:20:22;;;;;;;11.20;9.60;;;;;;;19.02;74.98;99984.48;130190;1271;108722;-76
2022/06/13 05:23:52;;;;;;;10.40;9.30;;;;;;;19.22;74.89;99983.24;130184;1271;108747;-75
2022/06/13 05:26:57;;;;;;;10.80;9.40;;;;;;;19.43;74.81;99978.63;130182;1270;108799;-75
2022/06/13 05:30:02;;;;;;;8.90;7.70;;;;;;;19.58;74.64;99971.80;130211;1271;108706;-74
2022/06/13 05:33:07;;;;;;;8.10;7.30;;;;;;;19.69;74.53;99969.13;130178;1271;108643;-75
2022/06/13 05:36:16;;;;;;;9.20;7.00;;;;;;;19.78;74.55;99962.88;130295;1271;108778;-77
2022/06/13 05:39:21;;;;;;;6.90;6.20;;;;;;;19.89;74.21;99959.50;130164;1269;108959;-77
2022/06/13 05:42:27;;;;;;;7.30;6.60;;;;;;;19.98;74.12;99955.79;130222;1271;107555;-75
2022/06/13 05:45:32;;;;;;;7.00;6.00;;;;;;;20.07;74.09;99951.46;130204;1271;109494;-75
2022/06/13 05:48:37;;;;;;;6.10;5.40;;;;;;;20.16;73.88;99944.71;130388;1270;108721;-75
2022/06/13 05:51:43;;;;;;;6.00;5.40;;;;;;;20.28;73.72;99939.38;130248;1271;108759;-74
2022/06/13 05:54:48;;;;;;;7.00;5.90;;;;;;;20.38;73.71;99933.77;130212;1270;107554;-74
2022/06/13 05:57:53;;;;;;;5.50;4.80;;;;;;;20.50;73.82;99932.27;130156;1271;108700;-76
2022/06/13 06:01:01;;;;;;;5.30;4.60;;;;;;;20.65;73.51;99925.80;130178;1271;108727;-76
2022/06/13 06:04:07;;;;;;;5.10;4.60;;;;;;;20.82;73.38;99927.85;130269;1270;107704;-76
2022/06/13 06:07:12;;;;;;;4.80;4.40;;;;;;;20.97;73.35;99929.39;130255;1271;108591;-77
2022/06/13 06:10:20;;;;;;;4.60;4.20;;;;;;;21.07;73.11;99933.90;130292;1270;108643;-79
2022/06/13 06:13:26;;;;;;;5.20;4.00;;;;;;;21.12;72.92;99937.71;130210;1269;108804;-77
2022/06/13 06:16:31;;;;;;;4.40;4.00;;;;;;;21.12;72.73;99933.78;130192;1271;108633;-78
2022/06/13 06:19:36;;;;;;;7.00;4.10;;;;;;;21.13;72.55;99930.60;130199;1270;108729;-77
2022/06/13 06:22:41;;;;;;;4.20;3.80;;;;;;;21.16;72.48;99924.17;130193;1270;108669;-76
2022/06/13 06:25:48;;;;;;;5.90;4.10;;;;;;;21.25;72.51;99914.73;130222;1270;108663;-76
2022/06/13 06:28:54;;;;;;;4.50;4.10;;;;;;;21.38;72.41;99906.98;130252;1271;108976;-76
2022/06/13 06:31:59;;;;;;;4.40;4.00;;;;;;;21.53;72.25;99912.54;130354;1271;108513;-74
2022/06/13 06:35:06;;;;;;;4.70;4.30;;;;;;;21.64;72.02;99914.70;130226;1271;109049;-76
2022/06/13 06:38:12;;;;;;;4.20;3.80;;;;;;;21.68;72.12;99915.89;130199;1268;108138;-76
2022/06/13 06:41:17;;;;;;;4.90;3.40;;;;;;;21.71;71.83;99912.32;130231;1270;108966;-77
2022/06/13 06:44:23;;;;;;;4.70;3.80;;;;;;;21.71;71.63;99906.19;130234;1271;108736;-76
2022/06/13 06:47:28;;;;;;;3.70;3.40;;;;;;;21.74;71.53;99905.00;130181;1271;108719;-76
2022/06/13 06:50:35;;;;;;;3.60;3.00;;;;;;;21.78;71.44;99909.02;130149;1271;108939;-77
2022/06/13 07:00:27;;;;;;;4.10;3.20;;;;;;;21.97;70.79;99904.23;130199;1271;108441;-80
2022/06/13 07:03:32;;;;;;;4.50;3.00;;;;;;;22.00;70.50;99908.67;130113;1271;109056;-78
2022/06/13 07:06:39;;;;;;;8.30;4.40;;;;;;;21.98;70.27;99913.23;130202;1271;108023;-78
2022/06/13 07:09:44;;;;;;;23.90;10.30;;;;;;;21.92;70.27;99917.73;130241;1269;108767;-78
2022/06/13 07:12:50;;;;;;;9.30;5.20;;;;;;;21.85;70.27;99912.96;130154;1270;108711;-78
2022/06/13 07:15:55;;;;;;;16.10;8.60;;;;;;;21.77;70.26;99910.30;130182;1271;108974;-79
2022/06/13 07:19:00;;;;;;;8.30;3.70;;;;;;;21.73;70.44;99903.23;130198;1271;108695;-79
2022/06/13 07:22:07;;;;;;;7.50;4.50;;;;;;;21.68;70.40;99903.52;130173;1271;108861;-76
2022/06/13 07:25:17;;;;;;;13.60;6.60;;;;;;;21.66;70.50;99910.52;130155;1269;108820;-73
2022/06/13 07:28:22;;;;;;;9.20;4.10;;;;;;;21.61;70.52;99920.65;130266;1271;108695;-72
2022/06/13 07:31:33;;;;;;;7.10;3.60;;;;;;;21.51;70.35;99930.23;130179;1269;108846;-71
2022/06/13 07:34:44;;;;;;;3.90;2.80;;;;;;;21.41;70.10;99939.05;130144;1271;108853;-73
2022/06/13 07:41:19;;;;;;;3.80;3.30;;;;;;;21.22;70.30;99927.30;130159;1271;108737;-76
2022/06/13 07:44:29;;;;;;;4.20;3.20;;;;;;;21.15;70.18;99923.48;130169;1271;108974;-74
2022/06/13 07:47:35;;;;;;;3.50;3.20;;;;;;;21.08;69.98;99910.87;130185;1271;108763;-75
2022/06/13 07:50:41;;;;;;;3.80;3.40;;;;;;;21.06;69.92;99903.53;130051;1271;109029;-77
2022/06/13 07:53:46;;;;;;;4.10;3.80;;;;;;;21.04;69.85;99912.12;130225;1271;109039;-76
2022/06/13 07:56:51;;;;;;;5.20;4.40;;;;;;;20.98;69.84;99913.48;130149;1270;108500;-76
2022/06/13 07:59:57;;;;;;;4.40;4.00;;;;;;;20.95;69.84;99901.64;130217;1271;107745;-76
2022/06/13 08:03:04;;;;;;;4.70;4.20;;;;;;;20.96;69.80;99896.45;130181;1271;108846;-78
2022/06/13 08:06:10;;;;;;;5.40;4.20;;;;;;;21.01;69.69;99883.08;130913;1271;108819;-79
2022/06/13 08:09:16;;;;;;;5.60;3.80;;;;;;;21.07;69.69;99883.49;130282;1270;108775;-80
2022/06/13 08:12:23;;;;;;;5.30;3.70;;;;;;;21.10;69.79;99889.98;130174;1271;108136;-80
2022/06/13 08:15:28;;;;;;;4.40;4.00;;;;;;;21.15;69.59;99889.73;130202;1271;108862;-76
2022/06/13 08:18:33;;;;;;;4.30;3.90;;;;;;;21.20;69.59;99885.46;130157;1271;108683;-79
2022/06/13 08:21:40;;;;;;;3.70;3.40;;;;;;;21.25;69.24;99877.99;130201;1270;109202;-82
2022/06/13 08:24:45;;;;;;;3.10;2.90;;;;;;;21.22;68.84;99873.66;130169;1270;107013;-79
2022/06/13 08:27:51;;;;;;;3.20;2.90;;;;;;;21.18;68.71;99872.16;130177;1270;108848;-80
2022/06/13 08:31:00;;;;;;;2.80;2.60;;;;;;;21.14;68.57;99873.81;130133;1270;108060;-83
2022/06/13 08:34:05;;;;;;;3.60;2.70;;;;;;;21.13;68.45;99883.77;130346;1271;108665;-81
2022/06/13 08:37:11;;;;;;;2.90;2.60;;;;;;;21.09;68.02;99892.73;130387;1271;109204;-78
2022/06/13 08:40:16;;;;;;;4.10;2.60;;;;;;;21.03;67.93;99892.13;130191;1271;108625;-80
2022/06/13 08:43:45;;;;;;;2.60;2.40;;;;;;;20.94;67.68;99883.32;130187;1271;108660;-80
2022/06/13 08:47:02;;;;;;;2.90;2.20;;;;;;;20.83;67.68;99870.98;130309;1271;108731;-79
2022/06/13 08:50:17;;;;;;;2.70;2.20;;;;;;;20.79;67.64;99877.12;130213;1270;107493;-81
2022/06/13 08:53:25;;;;;;;2.90;2.60;;;;;;;20.77;67.59;99875.65;130127;1271;108888;-80
2022/06/13 08:56:36;;;;;;;3.50;2.60;;;;;;;20.77;67.49;99870.34;130265;1270;109258;-79
2022/06/13 08:59:45;;;;;;;2.40;2.20;;;;;;;20.78;67.50;99869.88;130112;1271;108754;-78
2022/06/13 09:02:55;;;;;;;2.80;2.20;;;;;;;20.82;67.58;99882.05;130110;1270;108897;-79
2022/06/13 09:06:04;;;;;;;2.60;2.10;;;;;;;20.89;67.52;99881.86;130095;1270;108787;-81
2022/06/13 09:09:15;;;;;;;3.10;2.30;;;;;;;20.99;67.28;99869.80;130213;1270;108873;-80
2022/06/13 09:12:23;;;;;;;3.20;2.00;;;;;;;21.15;66.97;99866.98;130231;1270;108103;-82
2022/06/13 09:15:34;;;;;;;2.50;1.80;;;;;;;21.35;66.83;99875.26;130341;1270;108966;-82
2022/06/13 09:18:48;;;;;;;4.80;2.20;;;;;;;21.66;66.90;99878.37;130157;1270;108658;-84
2022/06/13 09:22:00;;;;;;;2.00;1.80;;;;;;;21.97;66.45;99871.00;130096;1270;108639;-80
2022/06/13 09:25:12;;;;;;;2.00;1.80;;;;;;;22.20;66.09;99874.96;130116;1271;108667;-80
2022/06/13 09:28:25;;;;;;;2.10;1.90;;;;;;;22.37;65.95;99885.52;130335;1270;108834;-79
2022/06/13 09:31:35;;;;;;;2.00;1.60;;;;;;;22.45;65.76;99887.20;130239;1271;108734;-79
2022/06/13 09:34:45;;;;;;;1.60;1.50;;;;;;;22.54;65.57;99887.06;130327;1270;109677;-81
2022/06/13 09:37:56;;;;;;;1.80;1.60;;;;;;;22.62;65.41;99874.55;130071;1270;108721;-78
2022/06/13 09:41:13;;;;;;;1.80;1.70;;;;;;;22.71;65.34;99879.29;130147;1270;108727;-79
2022/06/13 09:44:41;;;;;;;2.50;1.70;;;;;;;22.72;65.14;99876.55;130190;1271;108549;-78
2022/06/13 09:47:52;;;;;;;1.60;1.50;;;;;;;22.70;65.07;99878.84;130538;1270;109158;-81
2022/06/13 09:51:00;;;;;;;;;;;;;;;22.65;64.68;99876.66;130230;1271;107487;-80
2022/06/13 09:54:14;;;;;;;1.80;1.50;;;;;;;22.54;64.59;99869.27;130384;1271;108507;-78
2022/06/13 09:57:30;;;;;;;2.20;1.60;;;;;;;22.55;64.54;99866.70;130296;1271;108719;-80
2022/06/13 10:00:42;;;;;;;3.60;1.50;;;;;;;22.62;64.37;99859.31;130343;1271;108702;-81
2022/06/13 10:04:01;;;;;;;1.70;1.60;;;;;;;22.70;64.38;99854.41;130343;1271;108893;-80
2022/06/13 10:07:14;;;;;;;2.10;1.70;;;;;;;22.72;63.88;99844.29;130209;1271;109164;-80
2022/06/13 10:10:28;;;;;;;2.10;1.80;;;;;;;22.69;63.51;99845.96;130142;1271;108801;-80
2022/06/13 10:13:44;;;;;;;2.10;1.90;;;;;;;22.70;63.65;99846.92;130207;1270;108820;-80
2022/06/13 10:17:02;;;;;;;3.20;2.30;;;;;;;22.82;63.51;99856.97;130069;1271;108838;-83
2022/06/13 10:20:15;;;;;;;2.30;2.10;;;;;;;22.78;63.25;99860.22;130226;1270;107826;-81
2022/06/13 10:23:32;;;;;;;2.50;2.20;;;;;;;22.68;63.15;99860.95;130194;1271;108490;-77
2022/06/13 10:26:49;;;;;;;2.20;2.00;;;;;;;22.58;63.21;99863.70;130253;1270;108742;-80
2022/06/13 10:30:18;;;;;;;2.60;2.20;;;;;;;22.59;63.48;99862.02;130275;1271;109135;-80
2022/06/13 10:33:38;;;;;;;2.60;2.40;;;;;;;22.57;63.44;99855.69;130462;1270;108743;-83
2022/06/13 10:36:56;;;;;;;2.80;2.40;;;;;;;22.47;63.30;99854.20;130223;1271;108669;-78
2022/06/13 10:40:05;;;;;;;3.70;2.40;;;;;;;22.36;63.14;99853.80;130181;1271;108862;-80
2022/06/13 10:43:11;;;;;;;3.30;2.20;;;;;;;22.25;63.02;99853.55;130263;1271;108867;-78
2022/06/13 10:46:16;;;;;;;3.00;2.30;;;;;;;22.10;63.05;99851.49;130376;1271;108766;-78
2022/06/13 10:49:26;;;;;;;2.30;2.10;;;;;;;21.92;63.20;99855.61;130457;1271;108658;-83
2022/06/13 10:52:35;;;;;;;2.50;2.30;;;;;;;21.75;63.36;99847.56;130408;1269;109135;-78
2022/06/13 10:55:43;;;;;;;2.70;2.40;;;;;;;21.63;63.54;99845.29;130746;1270;108659;-81
2022/06/13 10:58:51;;;;;;;3.00;2.30;;;;;;;21.55;63.58;99843.84;130623;1270;108650;-82
2022/06/13 11:02:00;;;;;;;3.30;2.70;;;;;;;21.51;63.73;99845.61;130559;1271;108890;-83
2022/06/13 11:05:09;;;;;;;3.40;2.60;;;;;;;21.55;63.73;99848.84;130554;1270;108558;-80
2022/06/13 11:08:16;;;;;;;2.80;2.50;;;;;;;21.57;63.85;99847.59;130500;1271;108507;-81
2022/06/13 11:11:32;;;;;;;2.50;2.30;;;;;;;21.67;64.06;99844.79;130265;1271;108432;-85
2022/06/13 11:22:37;;;;;;;2.90;2.50;;;;;;;21.75;63.91;99843.33;130317;1271;108739;-81
2022/06/13 11:25:16;;;;;;;3.40;3.10;;;;;;;21.58;63.76;99858.91;130485;1271;108689;-70
2022/06/13 11:28:25;;;;;;;3.40;3.10;;;;;;;21.44;63.81;99860.73;130189;1270;108780;-76
2022/06/13 11:31:31;;;;;;;4.30;2.40;;;;;;;21.10;63.43;99886.48;130207;1271;108058;-70
2022/06/13 11:34:39;;;;;;;4.40;2.30;;;;;;;20.44;63.94;99901.80;130213;1270;108657;-72
2022/06/13 11:37:44;;;;;;;2.40;2.20;;;;;;;19.84;64.71;99904.00;130327;1271;109822;-71
2022/06/13 11:41:02;;;;;;;4.70;2.90;;;;;;;19.25;65.65;99903.73;130179;1271;108760;-69
2022/06/13 11:44:10;;;;;;;4.60;3.00;;;;;;;18.54;69.44;99918.85;130118;1271;108672;-72
2022/06/13 11:47:18;;;;;;;4.40;3.40;;;;;;;17.84;71.60;99921.61;130201;1271;106910;-73
2022/06/13 11:50:27;;;;;;;5.00;3.80;;;;;;;17.22;75.42;99920.11;130076;1270;108614;-70
2022/06/13 11:53:39;;;;;;;4.90;3.40;;;;;;;16.69;75.45;99938.21;130298;1271;108638;-70
2022/06/13 11:56:44;;;;;;;5.00;3.80;;;;;;;16.21;79.10;99947.81;130010;1271;108680;-70
2022/06/13 11:59:54;;;;;;;5.30;3.40;;;;;;;15.81;78.51;99953.89;130237;1271;108636;-71
2022/06/13 12:03:17;;;;;;;3.40;3.10;;;;;;;15.59;77.77;99956.25;130178;1271;107677;-70
2022/06/13 12:06:22;;;;;;;5.40;3.30;;;;;;;15.42;79.46;99966.77;130453;1271;108751;-70
2022/06/13 12:09:31;;;;;;;3.80;3.00;;;;;;;15.28;79.04;99967.13;130249;1271;108899;-70
2022/06/13 12:12:46;;;;;;;3.60;3.30;;;;;;;15.26;78.24;99970.50;130089;1271;108773;-70
2022/06/13 12:15:55;;;;;;;3.90;2.80;;;;;;;15.26;79.18;99955.69;130142;1271;108669;-70
2022/06/13 12:19:15;;;;;;;3.70;2.80;;;;;;;15.25;77.48;99953.45;130189;1271;108906;-69
2022/06/13 12:22:28;;;;;;;4.40;3.20;;;;;;;15.26;78.81;99956.52;130080;1270;109012;-71
2022/06/13 12:25:39;;;;;;;4.50;3.00;;;;;;;15.29;78.54;99962.30;130248;1271;108887;-70
2022/06/13 12:28:51;;;;;;;4.60;3.10;;;;;;;15.29;78.67;99961.38;130160;1270;108756;-69
2022/06/13 12:32:02;;;;;;;4.20;2.90;;;;;;;15.26;78.91;99960.13;130064;1271;108694;-70
2022/06/13 12:35:29;;;;;;;5.30;4.00;;;;;;;15.25;78.53;99961.14;130321;1270;108816;-70
2022/06/13 12:38:53;;;;;;;6.00;4.40;;;;;;;15.31;78.32;99969.73;130190;1271;108662;-70
2022/06/13 12:42:13;;;;;;;8.70;4.90;;;;;;;15.39;78.81;99980.81;130266;1271;109020;-70
2022/06/13 12:45:36;;;;;;;5.40;3.40;;;;;;;15.40;78.27;99982.80;130194;1271;108824;-71
2022/06/13 12:48:53;;;;;;;4.90;3.50;;;;;;;15.49;78.16;99971.14;129989;1271;108637;-70
2022/06/13 12:52:07;;;;;;;5.10;3.60;;;;;;;15.62;77.91;99966.23;130063;1271;108846;-69
2022/06/13 12:55:32;;;;;;;3.70;3.40;;;;;;;15.76;77.65;99978.29;130089;1271;108747;-72
2022/06/13 12:58:51;;;;;;;3.30;2.90;;;;;;;15.91;77.25;99986.48;130235;1271;108649;-79
2022/06/13 13:02:14;;;;;;;3.80;3.00;;;;;;;16.05;77.83;99994.45;130102;1271;196732;-76
2022/06/13 13:05:32;;;;;;;3.80;3.50;;;;;;;16.17;77.45;100004.48;130274;1271;108752;-75
2022/06/13 13:08:58;;;;;;;4.30;3.30;;;;;;;16.43;77.40;100010.60;130220;1271;108902;-71
2022/06/13 13:12:20;;;;;;;4.40;3.90;;;;;;;16.73;77.36;100018.92;130092;1270;108655;-72
2022/06/13 13:15:35;;;;;;;3.60;3.10;;;;;;;16.95;77.22;100031.59;130144;1271;108640;-71
2022/06/13 13:18:57;;;;;;;3.30;2.80;;;;;;;17.08;77.04;100042.39;130127;1271;108752;-74
2022/06/13 13:22:11;;;;;;;5.50;3.90;;;;;;;17.18;76.74;100044.67;130136;1271;109042;-75
2022/06/13 13:25:25;;;;;;;4.40;3.50;;;;;;;17.29;76.81;100050.05;130199;1271;108873;-73
2022/06/13 13:28:39;;;;;;;4.60;3.70;;;;;;;17.38;76.89;100049.52;130019;1271;108876;-70
2022/06/13 13:31:49;;;;;;;3.60;3.20;;;;;;;17.46;76.52;100041.32;130102;1271;108658;-72
2022/06/13 13:35:05;;;;;;;2.90;2.40;;;;;;;17.49;76.61;100037.39;130227;1271;108720;-70
2022/06/13 13:38:16;;;;;;;2.50;2.10;;;;;;;17.52;76.48;100029.67;130087;1270;108708;-70
2022/06/13 13:41:27;;;;;;;3.40;2.40;;;;;;;17.54;76.39;100027.92;130050;1271;108850;-68
2022/06/13 13:44:39;;;;;;;2.90;2.60;;;;;;;17.60;76.49;100033.52;130095;1271;108918;-68
2022/06/13 13:47:48;;;;;;;5.70;2.90;;;;;;;17.65;76.25;100038.84;130055;1271;108778;-68
2022/06/13 13:51:02;;;;;;;3.50;2.80;;;;;;;17.69;76.46;100040.16;130043;1272;108671;-76
2022/06/13 13:54:14;;;;;;;2.70;2.50;;;;;;;17.72;76.44;100037.88;130233;1271;108498;-73
2022/06/13 13:57:23;;;;;;;2.20;2.00;;;;;;;17.76;76.40;100037.02;130176;1271;108709;-72
2022/06/13 14:00:42;;;;;;;3.10;2.30;;;;;;;17.80;76.49;100037.65;130232;1272;108617;-73
2022/06/13 14:04:04;;;;;;;3.20;2.20;;;;;;;17.83;76.44;100027.95;130299;1271;108660;-75
2022/06/13 14:07:47;;;;;;;2.70;2.50;;;;;;;17.89;76.22;100000.95;130208;1271;107644;-75
2022/06/13 14:10:56;;;;;;;3.10;2.60;;;;;;;17.90;76.09;99979.93;130356;1271;108722;-74
2022/06/13 14:14:07;;;;;;;3.70;2.80;;;;;;;17.89;75.98;99969.97;130215;1271;108676;-71
2022/06/13 14:17:13;;;;;;;2.80;2.50;;;;;;;17.84;75.99;99954.45;130109;1271;108842;-74
2022/06/13 14:20:26;;;;;;;4.40;2.40;;;;;;;17.80;75.93;99942.61;130220;1271;107179;-82
2022/06/13 14:23:38;;;;;;;5.40;2.60;;;;;;;17.78;75.97;99920.61;130215;1271;108785;-78
2022/06/13 14:26:55;;;;;;;;;;;;;;;17.78;75.95;99879.17;130249;1270;108881;-71
2022/06/13 14:37:26;;;;;;;4.90;3.70;;;;;;;17.58;76.06;99908.23;129118;1281;108607;-70
2022/06/13 14:40:37;;;;;;;4.40;4.00;;;;;;;17.53;76.14;99912.17;129070;1280;108856;-71
2022/06/13 14:43:59;;;;;;;4.50;3.70;;;;;;;17.51;76.27;99923.95;129160;1281;108691;-72
2022/06/13 14:47:14;;;;;;;5.10;3.00;;;;;;;17.52;76.36;99914.46;128773;1278;592156;-70
2022/06/13 14:50:40;;;;;;;4.30;3.30;;;;;;;17.57;76.25;99909.49;129262;1277;108780;-70
2022/06/13 14:53:48;;;;;;;3.30;2.90;;;;;;;17.64;76.36;99907.45;129143;1277;108765;-70
2022/06/13 14:56:53;;;;;;;3.40;3.10;;;;;;;17.71;76.29;99909.23;130185;1278;108926;-82